createdAt,value
2022-11-29T00:01:30.731Z,7.57
2022-11-29T00:03:57.762Z,7.56
2022-11-29T00:06:27.408Z,7.57
2022-11-29T00:08:59.375Z,7.56
2022-11-29T00:11:48.173Z,7.58
2022-11-29T00:14:17.744Z,7.58
2022-11-29T00:16:45.878Z,7.56
2022-11-29T00:19:13.639Z,7.57
2022-11-29T00:21:40.156Z,7.58
2022-11-29T00:24:07.325Z,7.57
2022-11-29T00:26:33.876Z,7.56
2022-11-29T00:29:00.341Z,7.56
2022-11-29T00:31:32.819Z,7.55
2022-11-29T00:34:01.820Z,7.56
2022-11-29T00:36:29.173Z,7.55
2022-11-29T00:38:55.747Z,7.55
2022-11-29T00:41:22.301Z,7.54
2022-11-29T00:43:48.943Z,7.55
2022-11-29T00:46:15.649Z,7.55
2022-11-29T00:48:42.436Z,7.56
2022-11-29T00:51:09.175Z,7.54
2022-11-29T00:53:36.576Z,7.53
2022-11-29T00:56:04.657Z,7.55
2022-11-29T00:58:31.333Z,7.54
2022-11-29T01:00:58.046Z,7.53
2022-11-29T01:03:25.180Z,7.53
2022-11-29T01:05:51.876Z,7.52
2022-11-29T01:08:19.266Z,7.52
2022-11-29T01:10:45.894Z,7.52
2022-11-29T01:13:12.436Z,7.52
2022-11-29T01:15:38.924Z,7.52
2022-11-29T01:18:05.772Z,7.53
2022-11-29T01:20:32.375Z,7.52
2022-11-29T01:22:59.055Z,7.51
2022-11-29T01:25:25.748Z,7.48
2022-11-29T01:27:52.237Z,7.49
2022-11-29T01:30:18.792Z,7.48
2022-11-29T01:32:45.303Z,7.47
2022-11-29T01:35:11.793Z,7.47
2022-11-29T01:37:38.361Z,7.44
2022-11-29T01:40:05.658Z,7.43
2022-11-29T01:42:32.157Z,7.43
2022-11-29T01:45:36.141Z,7.43
2022-11-29T01:48:02.865Z,7.41
2022-11-29T01:50:29.452Z,7.39
2022-11-29T01:52:56.079Z,7.39
2022-11-29T01:55:22.653Z,7.39
2022-11-29T01:57:49.467Z,7.38
2022-11-29T02:00:18.390Z,7.37
2022-11-29T02:02:51.398Z,7.33
2022-11-29T02:05:19.537Z,7.34
2022-11-29T02:07:49.825Z,7.32
2022-11-29T02:10:17.124Z,7.32
2022-11-29T02:13:06.853Z,7.31
2022-11-29T02:15:42.270Z,7.29
2022-11-29T02:18:15.520Z,7.27
2022-11-29T02:20:41.929Z,7.26
2022-11-29T02:23:30.270Z,7.25
2022-11-29T02:26:11.932Z,7.25
2022-11-29T02:29:06.955Z,7.22
2022-11-29T02:32:07.292Z,7.20
2022-11-29T02:35:04.624Z,7.19
2022-11-29T02:37:52.421Z,7.19
2022-11-29T02:40:28.078Z,7.17
2022-11-29T02:43:20.472Z,7.18
2022-11-29T02:45:59.019Z,7.15
2022-11-29T02:48:52.826Z,7.15
2022-11-29T02:52:00.296Z,7.13
2022-11-29T02:54:36.072Z,7.11
2022-11-29T02:57:14.727Z,7.10
2022-11-29T03:00:05.316Z,7.10
2022-11-29T03:03:19.550Z,7.09
2022-11-29T03:06:07.967Z,7.06
2022-11-29T03:08:47.438Z,7.06
2022-11-29T03:11:45.493Z,7.06
2022-11-29T03:14:31.089Z,7.06
2022-11-29T03:17:07.949Z,7.04
2022-11-29T03:20:15.912Z,7.04
2022-11-29T03:23:08.995Z,7.03
2022-11-29T03:25:50.242Z,7.04
2022-11-29T03:28:27.270Z,6.99
2022-11-29T03:31:05.715Z,7.01
2022-11-29T03:33:41.143Z,6.99
2022-11-29T03:36:21.490Z,6.99
2022-11-29T03:38:48.200Z,6.98
2022-11-29T03:41:17.324Z,6.97
2022-11-29T03:44:07.350Z,6.97
2022-11-29T03:46:40.697Z,6.96
2022-11-29T03:49:15.023Z,6.93
2022-11-29T03:51:54.625Z,6.95
2022-11-29T03:54:28.548Z,6.91
2022-11-29T03:56:55.461Z,6.94
2022-11-29T03:59:49.749Z,6.93
2022-11-29T04:02:44.690Z,6.89
2022-11-29T04:05:23.392Z,6.88
2022-11-29T04:08:18.856Z,6.87
2022-11-29T04:11:13.530Z,6.87
2022-11-29T04:13:55.296Z,6.87
2022-11-29T04:16:46.364Z,6.87
2022-11-29T04:19:43.279Z,6.87
2022-11-29T04:22:18.715Z,6.86
2022-11-29T04:24:51.071Z,6.84
2022-11-29T04:27:34.468Z,6.83
2022-11-29T04:30:08.457Z,6.82
2022-11-29T04:33:07.709Z,6.83
2022-11-29T04:35:56.049Z,6.81
2022-11-29T04:39:01.940Z,6.81
2022-11-29T04:42:08.735Z,6.80
2022-11-29T04:44:54.053Z,6.78
2022-11-29T04:47:45.194Z,6.77
2022-11-29T04:50:15.617Z,6.76
2022-11-29T04:52:47.477Z,6.75
2022-11-29T04:55:30.510Z,6.77
2022-11-29T04:58:06.698Z,6.77
2022-11-29T05:00:45.607Z,6.75
2022-11-29T05:03:23.421Z,6.72
2022-11-29T05:06:02.721Z,6.72
2022-11-29T05:08:31.959Z,6.74
2022-11-29T05:11:18.079Z,6.72
2022-11-29T05:13:55.282Z,6.72
2022-11-29T05:16:21.781Z,6.71
2022-11-29T05:19:01.348Z,6.70
2022-11-29T05:21:46.636Z,6.69
2022-11-29T05:24:36.405Z,6.67
2022-11-29T05:27:21.374Z,6.66
2022-11-29T05:30:06.547Z,6.68
2022-11-29T05:32:53.351Z,6.66
2022-11-29T05:35:44.393Z,6.67
2022-11-29T05:38:16.911Z,6.67
2022-11-29T05:40:58.279Z,6.66
2022-11-29T05:43:48.554Z,6.65
2022-11-29T05:46:21.198Z,6.65
2022-11-29T05:48:50.661Z,6.64
2022-11-29T05:51:27.857Z,6.65
2022-11-29T05:54:18.629Z,6.65
2022-11-29T05:57:03.272Z,6.64
2022-11-29T05:59:31.052Z,6.63
2022-11-29T06:02:27.039Z,6.63
2022-11-29T06:05:13.633Z,6.61
2022-11-29T06:07:55.191Z,6.61
2022-11-29T06:10:28.175Z,6.62
2022-11-29T06:13:10.001Z,6.62
2022-11-29T06:16:07.434Z,6.62
2022-11-29T06:19:11.956Z,6.61
2022-11-29T06:22:41.117Z,6.60
2022-11-29T06:25:26.083Z,6.60
2022-11-29T06:27:59.348Z,6.59
2022-11-29T06:30:48.485Z,6.59
2022-11-29T06:33:23.219Z,6.61
2022-11-29T06:36:21.080Z,6.61
2022-11-29T06:38:47.881Z,6.61
2022-11-29T06:41:19.670Z,6.59
2022-11-29T06:43:47.189Z,6.61
2022-11-29T06:46:50.546Z,6.59
2022-11-29T06:49:32.311Z,6.59
2022-11-29T06:52:11.159Z,6.59
2022-11-29T06:55:01.348Z,6.58
2022-11-29T06:57:37.121Z,6.58
2022-11-29T07:00:23.577Z,6.59
2022-11-29T07:03:11.251Z,6.58
2022-11-29T07:05:38.331Z,6.56
2022-11-29T07:08:15.781Z,6.55
2022-11-29T07:10:43.572Z,6.58
2022-11-29T07:13:13.839Z,6.56
2022-11-29T07:15:53.049Z,6.55
2022-11-29T07:18:40.731Z,6.55
2022-11-29T07:21:21.713Z,6.54
2022-11-29T07:24:23.657Z,6.52
2022-11-29T07:27:13.062Z,6.52
2022-11-29T07:30:06.619Z,6.49
2022-11-29T07:32:50.356Z,6.49
2022-11-29T07:35:43.960Z,6.50
2022-11-29T07:38:25.530Z,6.50
2022-11-29T07:41:03.608Z,6.50
2022-11-29T07:43:44.923Z,6.49
2022-11-29T07:46:11.385Z,6.48
2022-11-29T07:48:37.893Z,6.46
2022-11-29T07:51:04.617Z,6.47
2022-11-29T07:53:31.148Z,6.46
2022-11-29T07:55:58.136Z,6.46
2022-11-29T07:58:24.823Z,6.46
2022-11-29T08:00:51.525Z,6.46
2022-11-29T08:03:18.064Z,6.44
2022-11-29T08:05:48.175Z,6.45
2022-11-29T08:08:15.185Z,6.43
2022-11-29T08:10:41.704Z,6.44
2022-11-29T08:13:08.235Z,6.42
2022-11-29T08:15:35.115Z,6.42
2022-11-29T08:18:02.866Z,6.43
2022-11-29T08:20:29.360Z,6.42
2022-11-29T08:22:59.861Z,6.41
2022-11-29T08:25:27.914Z,6.41
2022-11-29T08:27:54.970Z,6.42
2022-11-29T08:30:22.534Z,6.41
2022-11-29T08:32:51.657Z,6.44
2022-11-29T08:35:20.296Z,6.44
2022-11-29T08:37:47.085Z,6.46
2022-11-29T08:40:14.537Z,6.46
2022-11-29T08:42:41.049Z,6.46
2022-11-29T08:45:08.208Z,6.48
2022-11-29T08:47:38.150Z,6.49
2022-11-29T08:50:16.683Z,6.50
2022-11-29T08:53:07.515Z,6.50
2022-11-29T08:55:40.691Z,6.53
2022-11-29T08:58:12.912Z,6.55
2022-11-29T09:00:40.113Z,6.55
2022-11-29T09:03:26.759Z,6.56
2022-11-29T09:05:53.349Z,6.57
2022-11-29T09:08:20.201Z,6.58
2022-11-29T09:10:47.576Z,6.62
2022-11-29T09:13:14.520Z,6.62
2022-11-29T09:15:43.383Z,6.63
2022-11-29T09:18:10.058Z,6.64
2022-11-29T09:20:36.603Z,6.64
2022-11-29T09:23:03.177Z,6.64
2022-11-29T09:25:29.697Z,6.67
2022-11-29T09:28:01.820Z,6.68
2022-11-29T09:30:31.831Z,6.68
2022-11-29T09:33:02.758Z,6.70
2022-11-29T09:35:29.999Z,6.71
2022-11-29T09:37:56.549Z,6.71
2022-11-29T09:40:30.817Z,6.73
2022-11-29T09:43:20.002Z,6.74
2022-11-29T09:45:51.711Z,6.76
2022-11-29T09:48:33.133Z,6.75
2022-11-29T09:51:14.032Z,6.76
2022-11-29T09:54:02.652Z,6.79
2022-11-29T09:56:41.280Z,6.75
2022-11-29T09:59:34.057Z,6.78
2022-11-29T10:02:21.117Z,6.81
2022-11-29T10:05:01.300Z,6.81
2022-11-29T10:07:39.548Z,6.83
2022-11-29T10:10:17.493Z,6.86
2022-11-29T10:12:56.293Z,6.85
2022-11-29T10:15:35.025Z,6.87
2022-11-29T10:18:11.230Z,6.89
2022-11-29T10:20:43.618Z,6.89
2022-11-29T10:23:36.112Z,6.90
2022-11-29T10:26:08.099Z,6.91
2022-11-29T10:28:36.691Z,6.92
2022-11-29T10:31:26.930Z,6.93
2022-11-29T10:33:55.738Z,6.94
2022-11-29T10:36:42.257Z,6.93
2022-11-29T10:39:53.778Z,6.98
2022-11-29T10:42:44.390Z,6.96
2022-11-29T10:45:26.136Z,7.01
2022-11-29T10:47:55.944Z,7.06
2022-11-29T10:50:29.500Z,7.06
2022-11-29T10:53:01.190Z,7.06
2022-11-29T10:55:30.928Z,7.09
2022-11-29T10:58:16.333Z,7.09
2022-11-29T11:01:07.412Z,7.09
2022-11-29T11:03:33.935Z,7.12
2022-11-29T11:06:14.709Z,7.13
2022-11-29T11:08:52.527Z,7.12
2022-11-29T11:11:31.383Z,7.13
2022-11-29T11:14:34.694Z,7.13
2022-11-29T11:17:26.070Z,7.14
2022-11-29T11:20:20.291Z,7.15
2022-11-29T11:23:25.021Z,7.15
2022-11-29T11:26:04.288Z,7.17
2022-11-29T11:28:56.200Z,7.19
2022-11-29T11:31:34.211Z,7.20
2022-11-29T11:34:28.178Z,7.22
2022-11-29T11:37:19.261Z,7.23
2022-11-29T11:39:48.861Z,7.24
2022-11-29T11:42:40.401Z,7.25
2022-11-29T11:45:12.712Z,7.27
2022-11-29T11:47:57.899Z,7.29
2022-11-29T11:50:42.086Z,7.30
2022-11-29T11:53:27.704Z,7.32
2022-11-29T11:55:56.166Z,7.32
2022-11-29T11:58:23.983Z,7.34
2022-11-29T12:01:05.299Z,7.34
2022-11-29T12:04:11.692Z,7.36
2022-11-29T12:06:43.724Z,7.35
2022-11-29T12:09:24.917Z,7.38
2022-11-29T12:12:15.109Z,7.40
2022-11-29T12:14:53.629Z,7.41
2022-11-29T12:17:32.401Z,7.41
2022-11-29T12:20:20.664Z,7.41
2022-11-29T12:23:13.258Z,7.42
2022-11-29T12:25:52.178Z,7.42
2022-11-29T12:28:21.133Z,7.43
2022-11-29T12:31:25.757Z,7.46
2022-11-29T12:33:52.290Z,7.46
2022-11-29T12:37:02.388Z,7.44
2022-11-29T12:39:31.908Z,7.47
2022-11-29T12:42:23.135Z,7.49
2022-11-29T12:45:16.066Z,7.49
2022-11-29T12:48:08.959Z,7.51
2022-11-29T12:50:38.413Z,7.52
2022-11-29T12:53:07.517Z,7.51
2022-11-29T12:55:53.047Z,7.51
2022-11-29T12:58:46.392Z,7.51
2022-11-29T13:01:15.957Z,7.53
2022-11-29T13:03:58.295Z,7.54
2022-11-29T13:06:56.195Z,7.55
2022-11-29T13:09:25.511Z,7.54
2022-11-29T13:12:00.766Z,7.55
2022-11-29T13:14:44.374Z,7.57
2022-11-29T13:17:42.246Z,7.57
2022-11-29T13:20:24.052Z,7.57
2022-11-29T13:23:05.438Z,7.57
2022-11-29T13:25:41.706Z,7.56
2022-11-29T13:28:27.942Z,7.56
2022-11-29T13:31:00.246Z,7.54
2022-11-29T13:34:03.942Z,7.57
2022-11-29T13:36:45.711Z,7.56
2022-11-29T13:39:30.508Z,7.56
2022-11-29T13:42:25.200Z,7.56
2022-11-29T13:45:19.376Z,7.58
2022-11-29T13:48:41.120Z,7.56
2022-11-29T13:51:29.479Z,7.56
2022-11-29T13:53:58.361Z,7.57
2022-11-29T13:56:46.199Z,7.57
2022-11-29T13:59:22.792Z,7.57
2022-11-29T14:01:54.150Z,7.56
2022-11-29T14:04:26.824Z,7.58
2022-11-29T14:07:10.929Z,7.52
2022-11-29T14:09:49.275Z,7.55
2022-11-29T14:12:38.395Z,7.57
2022-11-29T14:15:10.999Z,7.55
2022-11-29T14:17:56.259Z,7.56
2022-11-29T14:20:22.701Z,7.54
2022-11-29T14:23:04.736Z,7.56
2022-11-29T14:25:51.698Z,7.56
2022-11-29T14:28:21.496Z,7.55
2022-11-29T14:30:52.491Z,7.55
2022-11-29T14:33:34.161Z,7.58
2022-11-29T14:36:06.479Z,7.56
2022-11-29T14:38:39.743Z,7.58
2022-11-29T14:41:14.096Z,7.56
2022-11-29T14:43:43.454Z,7.55
2022-11-29T14:46:16.257Z,7.57
2022-11-29T14:48:57.257Z,7.55
2022-11-29T14:51:27.025Z,7.53
2022-11-29T14:54:13.210Z,7.54
2022-11-29T14:56:42.696Z,7.52
2022-11-29T14:59:47.192Z,7.51
2022-11-29T15:02:13.683Z,7.50
2022-11-29T15:04:41.034Z,7.48
2022-11-29T15:07:16.998Z,7.48
2022-11-29T15:09:44.026Z,7.47
2022-11-29T15:12:17.250Z,7.45
2022-11-29T15:14:48.450Z,7.43
2022-11-29T15:17:59.284Z,7.43
2022-11-29T15:20:28.512Z,7.42
2022-11-29T15:22:59.610Z,7.40
2022-11-29T15:25:31.299Z,7.39
2022-11-29T15:28:02.850Z,7.38
2022-11-29T15:30:42.221Z,7.38
2022-11-29T15:33:29.308Z,7.35
2022-11-29T15:36:03.989Z,7.33
2022-11-29T15:38:44.453Z,7.31
2022-11-29T15:41:21.272Z,7.33
2022-11-29T15:43:53.879Z,7.31
2022-11-29T15:46:24.557Z,7.26
2022-11-29T15:48:51.105Z,7.27
2022-11-29T15:51:26.766Z,7.27
2022-11-29T15:54:27.405Z,7.25
2022-11-29T15:56:57.535Z,7.25
2022-11-29T15:59:40.606Z,7.25
2022-11-29T16:02:29.688Z,7.24
2022-11-29T16:04:59.858Z,7.22
2022-11-29T16:07:32.487Z,7.20
2022-11-29T16:10:04.468Z,7.19
2022-11-29T16:12:31.934Z,7.18
2022-11-29T16:15:01.282Z,7.16
2022-11-29T16:17:34.168Z,7.14
2022-11-29T16:20:19.137Z,7.14
2022-11-29T16:22:45.811Z,7.11
2022-11-29T16:25:17.536Z,7.11
2022-11-29T16:27:44.776Z,7.11
2022-11-29T16:30:22.829Z,7.11
2022-11-29T16:32:59.698Z,7.06
2022-11-29T16:35:29.208Z,7.06
2022-11-29T16:37:56.098Z,7.07
2022-11-29T16:40:28.405Z,7.05
2022-11-29T16:43:04.092Z,7.04
2022-11-29T16:45:34.807Z,7.03
2022-11-29T16:48:02.894Z,7.01
2022-11-29T16:50:31.453Z,7.00
2022-11-29T16:53:34.170Z,7.00
2022-11-29T16:56:00.751Z,6.98
2022-11-29T16:58:28.137Z,6.96
2022-11-29T17:00:55.418Z,6.98
2022-11-29T17:03:22.527Z,6.97
2022-11-29T17:05:49.867Z,6.95
2022-11-29T17:08:16.372Z,6.94
2022-11-29T17:10:42.957Z,6.94
2022-11-29T17:13:10.911Z,6.92
2022-11-29T17:15:37.552Z,6.93
2022-11-29T17:18:04.178Z,6.90
2022-11-29T17:20:30.649Z,6.91
2022-11-29T17:22:57.445Z,6.89
2022-11-29T17:25:24.010Z,6.89
2022-11-29T17:27:50.637Z,6.88
2022-11-29T17:30:17.341Z,6.87
2022-11-29T17:32:43.854Z,6.86
2022-11-29T17:35:10.389Z,6.86
2022-11-29T17:37:37.281Z,6.85
2022-11-29T17:40:04.122Z,6.85
2022-11-29T17:42:30.697Z,6.83
2022-11-29T17:44:57.176Z,6.83
2022-11-29T17:47:23.644Z,6.80
2022-11-29T17:49:50.125Z,6.80
2022-11-29T17:52:16.673Z,6.80
2022-11-29T17:54:43.179Z,6.78
2022-11-29T17:57:10.301Z,6.79
2022-11-29T17:59:36.950Z,6.78
2022-11-29T18:02:04.287Z,6.77
2022-11-29T18:04:30.869Z,6.78
2022-11-29T18:06:57.819Z,6.77
2022-11-29T18:09:24.656Z,6.75
2022-11-29T18:11:52.429Z,6.75
2022-11-29T18:14:23.070Z,6.73
2022-11-29T18:16:50.022Z,6.73
2022-11-29T18:19:18.774Z,6.75
2022-11-29T18:21:45.624Z,6.72
2022-11-29T18:24:12.324Z,6.72
2022-11-29T18:26:39.800Z,6.72
2022-11-29T18:29:07.596Z,6.71
2022-11-29T18:31:36.553Z,6.71
2022-11-29T18:34:12.024Z,6.69
2022-11-29T18:36:48.486Z,6.69
2022-11-29T18:39:20.285Z,6.67
2022-11-29T18:41:49.353Z,6.69
2022-11-29T18:44:17.542Z,6.69
2022-11-29T18:46:45.365Z,6.68
2022-11-29T18:49:14.799Z,6.67
2022-11-29T18:51:46.141Z,6.66
2022-11-29T18:54:14.147Z,6.64
2022-11-29T18:56:41.989Z,6.61
2022-11-29T18:59:10.495Z,6.58
2022-11-29T19:01:41.301Z,6.59
2022-11-29T19:04:13.020Z,6.58
2022-11-29T19:06:40.475Z,6.59
2022-11-29T19:09:11.178Z,6.54
2022-11-29T19:11:37.820Z,6.59
2022-11-29T19:14:11.079Z,6.56
2022-11-29T19:16:39.691Z,6.55
2022-11-29T19:19:06.480Z,6.55
2022-11-29T19:21:34.449Z,6.56
2022-11-29T19:24:05.412Z,6.53
2022-11-29T19:26:32.746Z,6.52
2022-11-29T19:29:00.623Z,6.51
2022-11-29T19:31:27.960Z,6.49
2022-11-29T19:33:55.614Z,6.48
2022-11-29T19:36:26.509Z,6.44
2022-11-29T19:38:54.648Z,6.46
2022-11-29T19:41:21.177Z,6.45
2022-11-29T19:43:49.308Z,6.45
2022-11-29T19:46:19.088Z,6.42
2022-11-29T19:48:45.906Z,6.43
2022-11-29T19:51:16.521Z,6.43
2022-11-29T19:53:44.070Z,6.41
2022-11-29T19:56:15.536Z,6.41
2022-11-29T19:58:43.446Z,6.41
2022-11-29T20:01:13.596Z,6.40
2022-11-29T20:03:41.113Z,6.40
2022-11-29T20:06:09.144Z,6.41
2022-11-29T20:08:37.300Z,6.41
2022-11-29T20:11:19.161Z,6.40
2022-11-29T20:13:51.545Z,6.38
2022-11-29T20:16:21.619Z,6.37
2022-11-29T20:18:51.081Z,6.37
2022-11-29T20:21:29.267Z,6.35
2022-11-29T20:24:04.212Z,6.35
2022-11-29T20:26:32.964Z,6.33
2022-11-29T20:29:01.755Z,6.34
2022-11-29T20:31:28.738Z,6.32
2022-11-29T20:33:58.928Z,6.32
2022-11-29T20:36:43.694Z,6.30
2022-11-29T20:39:38.333Z,6.28
2022-11-29T20:42:20.431Z,6.26
2022-11-29T20:45:01.272Z,6.24
2022-11-29T20:47:47.567Z,6.24
2022-11-29T20:50:22.953Z,6.21
2022-11-29T20:53:15.930Z,6.21
2022-11-29T20:55:48.081Z,6.20
2022-11-29T20:58:15.210Z,6.18
2022-11-29T21:00:41.941Z,6.21
2022-11-29T21:03:08.529Z,6.19
2022-11-29T21:05:38.030Z,6.18
2022-11-29T21:08:04.806Z,6.17
2022-11-29T21:10:31.346Z,6.16
2022-11-29T21:12:58.149Z,6.15
2022-11-29T21:15:25.470Z,6.13
2022-11-29T21:17:52.665Z,6.13
2022-11-29T21:20:25.566Z,6.14
2022-11-29T21:23:39.940Z,6.12
2022-11-29T21:26:20.883Z,6.10
2022-11-29T21:29:04.511Z,6.09
2022-11-29T21:31:31.301Z,6.09
2022-11-29T21:33:57.986Z,6.08
2022-11-29T21:36:24.522Z,6.09
2022-11-29T21:38:55.038Z,6.07
2022-11-29T21:41:22.439Z,6.06
2022-11-29T21:44:06.225Z,6.05
2022-11-29T21:46:34.174Z,6.04
2022-11-29T21:49:00.807Z,6.04
2022-11-29T21:51:27.291Z,6.04
2022-11-29T21:53:53.742Z,6.04
2022-11-29T21:56:20.262Z,6.03
2022-11-29T21:58:46.738Z,6.02
2022-11-29T22:01:16.500Z,6.02
2022-11-29T22:03:43.712Z,6.02
2022-11-29T22:06:16.236Z,6.01
2022-11-29T22:08:42.853Z,6.02
2022-11-29T22:11:12.080Z,5.97
2022-11-29T22:14:00.630Z,5.99
2022-11-29T22:16:27.959Z,5.99
2022-11-29T22:18:54.806Z,5.98
2022-11-29T22:21:21.509Z,5.98
2022-11-29T22:23:48.065Z,5.96
2022-11-29T22:26:14.554Z,5.97
2022-11-29T22:28:41.139Z,5.95
2022-11-29T22:31:12.471Z,5.94
2022-11-29T22:33:39.412Z,5.95
2022-11-29T22:36:08.158Z,5.93
2022-11-29T22:38:35.101Z,5.93
2022-11-29T22:41:03.909Z,5.96
2022-11-29T22:43:31.437Z,5.93
2022-11-29T22:46:21.922Z,5.92
2022-11-29T22:48:51.651Z,5.92
2022-11-29T22:51:21.452Z,5.91
2022-11-29T22:53:50.473Z,5.95
2022-11-29T22:56:17.817Z,5.92
2022-11-29T22:58:44.899Z,5.93
2022-11-29T23:01:17.404Z,5.94
2022-11-29T23:03:48.183Z,5.93
2022-11-29T23:06:17.235Z,5.93
2022-11-29T23:08:44.849Z,5.93
2022-11-29T23:11:13.573Z,5.92
2022-11-29T23:13:42.577Z,5.93
2022-11-29T23:16:18.626Z,5.93
2022-11-29T23:18:46.005Z,5.93
2022-11-29T23:21:24.173Z,5.92
2022-11-29T23:23:56.042Z,5.92
2022-11-29T23:26:44.979Z,5.89
2022-11-29T23:29:17.509Z,5.92
2022-11-29T23:31:44.478Z,5.91
2022-11-29T23:34:12.375Z,5.89
2022-11-29T23:36:39.136Z,5.90
2022-11-29T23:39:06.807Z,5.90
2022-11-29T23:41:34.494Z,5.89
2022-11-29T23:44:04.138Z,5.89
2022-11-29T23:46:30.636Z,5.88
2022-11-29T23:48:57.242Z,5.88
2022-11-29T23:51:23.807Z,5.88
2022-11-29T23:53:52.212Z,5.88
2022-11-29T23:56:19.879Z,5.87
2022-11-29T23:58:47.370Z,5.86
